sensor_id;sensor_type;location;lat;lon;timestamp;temperature;humidity
21169;DHT22;10742;51.816;8.662;2023-06-24T00:01:32;21.50;86.60
21169;DHT22;10742;51.816;8.662;2023-06-24T00:04:35;21.40;86.90
21169;DHT22;10742;51.816;8.662;2023-06-24T00:07:37;21.30;87.00
21169;DHT22;10742;51.816;8.662;2023-06-24T00:10:46;21.30;87.20
21169;DHT22;10742;51.816;8.662;2023-06-24T00:13:49;21.20;87.40
21169;DHT22;10742;51.816;8.662;2023-06-24T00:16:51;21.20;87.70
21169;DHT22;10742;51.816;8.662;2023-06-24T00:19:54;21.10;87.90
21169;DHT22;10742;51.816;8.662;2023-06-24T00:22:57;21.10;88.20
21169;DHT22;10742;51.816;8.662;2023-06-24T00:25:59;21.10;88.40
21169;DHT22;10742;51.816;8.662;2023-06-24T00:29:01;21.00;88.50
21169;DHT22;10742;51.816;8.662;2023-06-24T00:32:04;21.00;88.60
21169;DHT22;10742;51.816;8.662;2023-06-24T00:35:07;20.90;88.70
21169;DHT22;10742;51.816;8.662;2023-06-24T00:38:09;21.00;88.90
21169;DHT22;10742;51.816;8.662;2023-06-24T00:41:12;20.90;88.90
21169;DHT22;10742;51.816;8.662;2023-06-24T00:44:14;20.90;89.00
21169;DHT22;10742;51.816;8.662;2023-06-24T00:47:18;20.90;89.20
21169;DHT22;10742;51.816;8.662;2023-06-24T00:50:20;20.80;89.30
21169;DHT22;10742;51.816;8.662;2023-06-24T00:53:23;20.80;89.30
21169;DHT22;10742;51.816;8.662;2023-06-24T00:56:36;20.80;89.30
21169;DHT22;10742;51.816;8.662;2023-06-24T00:59:45;20.70;90.00
21169;DHT22;10742;51.816;8.662;2023-06-24T01:02:49;20.70;89.70
21169;DHT22;10742;51.816;8.662;2023-06-24T01:05:53;20.70;89.80
21169;DHT22;10742;51.816;8.662;2023-06-24T01:08:59;20.70;89.90
21169;DHT22;10742;51.816;8.662;2023-06-24T01:12:03;20.60;90.10
21169;DHT22;10742;51.816;8.662;2023-06-24T01:15:09;20.60;90.00
21169;DHT22;10742;51.816;8.662;2023-06-24T01:18:24;20.60;90.20
21169;DHT22;10742;51.816;8.662;2023-06-24T01:21:45;20.50;90.30
21169;DHT22;10742;51.816;8.662;2023-06-24T01:31:48;20.40;90.50
21169;DHT22;10742;51.816;8.662;2023-06-24T01:35:11;20.40;90.40
21169;DHT22;10742;51.816;8.662;2023-06-24T01:38:22;20.30;90.60
21169;DHT22;10742;51.816;8.662;2023-06-24T01:41:27;20.30;90.50
21169;DHT22;10742;51.816;8.662;2023-06-24T01:44:33;20.30;90.40
21169;DHT22;10742;51.816;8.662;2023-06-24T01:47:38;20.20;90.40
21169;DHT22;10742;51.816;8.662;2023-06-24T01:50:50;20.20;90.50
21169;DHT22;10742;51.816;8.662;2023-06-24T01:54:00;20.10;90.70
21169;DHT22;10742;51.816;8.662;2023-06-24T01:57:06;20.10;90.70
21169;DHT22;10742;51.816;8.662;2023-06-24T02:00:09;20.10;90.70
21169;DHT22;10742;51.816;8.662;2023-06-24T02:03:25;20.00;90.50
21169;DHT22;10742;51.816;8.662;2023-06-24T02:06:30;20.00;90.60
21169;DHT22;10742;51.816;8.662;2023-06-24T02:09:33;20.00;90.60
21169;DHT22;10742;51.816;8.662;2023-06-24T02:12:37;19.90;90.60
21169;DHT22;10742;51.816;8.662;2023-06-24T02:15:41;19.90;90.60
21169;DHT22;10742;51.816;8.662;2023-06-24T02:18:44;19.90;90.60
21169;DHT22;10742;51.816;8.662;2023-06-24T02:21:46;19.80;90.60
21169;DHT22;10742;51.816;8.662;2023-06-24T02:24:49;19.80;90.60
21169;DHT22;10742;51.816;8.662;2023-06-24T02:27:53;19.70;90.60
21169;DHT22;10742;51.816;8.662;2023-06-24T02:30:57;19.70;90.70
21169;DHT22;10742;51.816;8.662;2023-06-24T02:34:00;19.60;90.70
21169;DHT22;10742;51.816;8.662;2023-06-24T02:37:03;19.60;90.70
21169;DHT22;10742;51.816;8.662;2023-06-24T02:40:08;19.60;90.70
21169;DHT22;10742;51.816;8.662;2023-06-24T02:43:11;19.50;90.70
21169;DHT22;10742;51.816;8.662;2023-06-24T02:46:14;19.50;90.80
21169;DHT22;10742;51.816;8.662;2023-06-24T02:49:18;19.40;90.80
21169;DHT22;10742;51.816;8.662;2023-06-24T02:52:21;19.40;90.80
21169;DHT22;10742;51.816;8.662;2023-06-24T02:55:24;19.40;90.90
21169;DHT22;10742;51.816;8.662;2023-06-24T02:58:36;19.30;90.90
21169;DHT22;10742;51.816;8.662;2023-06-24T03:01:44;19.30;91.00
21169;DHT22;10742;51.816;8.662;2023-06-24T03:04:49;19.30;91.10
21169;DHT22;10742;51.816;8.662;2023-06-24T03:07:52;19.30;91.10
21169;DHT22;10742;51.816;8.662;2023-06-24T03:10:57;19.20;91.10
21169;DHT22;10742;51.816;8.662;2023-06-24T03:14:03;19.20;91.10
21169;DHT22;10742;51.816;8.662;2023-06-24T03:17:10;19.20;91.20
21169;DHT22;10742;51.816;8.662;2023-06-24T03:20:14;19.20;91.20
21169;DHT22;10742;51.816;8.662;2023-06-24T03:23:16;19.20;91.20
21169;DHT22;10742;51.816;8.662;2023-06-24T03:26:19;19.20;91.20
21169;DHT22;10742;51.816;8.662;2023-06-24T03:29:21;19.10;91.20
21169;DHT22;10742;51.816;8.662;2023-06-24T03:32:36;19.00;91.30
21169;DHT22;10742;51.816;8.662;2023-06-24T03:35:39;19.10;91.30
21169;DHT22;10742;51.816;8.662;2023-06-24T03:38:45;19.00;91.30
21169;DHT22;10742;51.816;8.662;2023-06-24T03:41:48;19.00;91.40
21169;DHT22;10742;51.816;8.662;2023-06-24T03:44:51;19.00;91.30
21169;DHT22;10742;51.816;8.662;2023-06-24T03:47:53;19.00;91.30
21169;DHT22;10742;51.816;8.662;2023-06-24T03:50:55;19.00;91.20
21169;DHT22;10742;51.816;8.662;2023-06-24T03:53:58;19.00;91.20
21169;DHT22;10742;51.816;8.662;2023-06-24T03:57:00;18.90;91.10
21169;DHT22;10742;51.816;8.662;2023-06-24T04:00:03;18.90;91.20
21169;DHT22;10742;51.816;8.662;2023-06-24T04:03:20;18.80;91.20
21169;DHT22;10742;51.816;8.662;2023-06-24T04:06:22;18.80;91.20
21169;DHT22;10742;51.816;8.662;2023-06-24T04:09:24;18.70;91.20
21169;DHT22;10742;51.816;8.662;2023-06-24T04:12:28;18.70;91.30
21169;DHT22;10742;51.816;8.662;2023-06-24T04:15:30;18.70;91.50
21169;DHT22;10742;51.816;8.662;2023-06-24T04:18:32;18.70;91.50
21169;DHT22;10742;51.816;8.662;2023-06-24T04:21:34;18.60;91.70
21169;DHT22;10742;51.816;8.662;2023-06-24T04:24:37;18.60;91.90
21169;DHT22;10742;51.816;8.662;2023-06-24T04:27:39;18.60;92.00
21169;DHT22;10742;51.816;8.662;2023-06-24T04:30:43;18.70;92.10
21169;DHT22;10742;51.816;8.662;2023-06-24T04:33:45;18.70;92.30
21169;DHT22;10742;51.816;8.662;2023-06-24T04:36:48;18.80;92.40
21169;DHT22;10742;51.816;8.662;2023-06-24T04:39:50;18.90;92.40
21169;DHT22;10742;51.816;8.662;2023-06-24T04:42:53;18.90;92.50
21169;DHT22;10742;51.816;8.662;2023-06-24T04:45:55;19.00;92.60
21169;DHT22;10742;51.816;8.662;2023-06-24T04:48:57;19.10;92.60
21169;DHT22;10742;51.816;8.662;2023-06-24T04:52:00;19.10;92.60
21169;DHT22;10742;51.816;8.662;2023-06-24T04:55:03;19.20;92.90
21169;DHT22;10742;51.816;8.662;2023-06-24T04:58:06;19.30;92.70
21169;DHT22;10742;51.816;8.662;2023-06-24T05:01:08;19.40;92.60
21169;DHT22;10742;51.816;8.662;2023-06-24T05:04:10;19.40;92.50
21169;DHT22;10742;51.816;8.662;2023-06-24T05:07:13;19.50;92.40
21169;DHT22;10742;51.816;8.662;2023-06-24T05:10:15;19.60;92.60
21169;DHT22;10742;51.816;8.662;2023-06-24T05:13:17;19.70;92.60
21169;DHT22;10742;51.816;8.662;2023-06-24T05:16:20;19.80;93.00
21169;DHT22;10742;51.816;8.662;2023-06-24T05:19:22;20.00;92.70
21169;DHT22;10742;51.816;8.662;2023-06-24T05:22:24;20.20;92.70
21169;DHT22;10742;51.816;8.662;2023-06-24T05:25:27;20.30;92.70
21169;DHT22;10742;51.816;8.662;2023-06-24T05:28:29;20.50;92.70
21169;DHT22;10742;51.816;8.662;2023-06-24T05:31:31;20.70;92.70
21169;DHT22;10742;51.816;8.662;2023-06-24T05:34:34;20.90;92.60
21169;DHT22;10742;51.816;8.662;2023-06-24T05:37:37;21.10;92.60
21169;DHT22;10742;51.816;8.662;2023-06-24T05:40:40;21.30;92.50
21169;DHT22;10742;51.816;8.662;2023-06-24T05:43:45;21.50;92.40
21169;DHT22;10742;51.816;8.662;2023-06-24T05:46:48;21.70;92.10
21169;DHT22;10742;51.816;8.662;2023-06-24T05:49:50;22.00;92.10
21169;DHT22;10742;51.816;8.662;2023-06-24T05:52:53;22.20;92.00
21169;DHT22;10742;51.816;8.662;2023-06-24T05:55:55;22.40;91.90
21169;DHT22;10742;51.816;8.662;2023-06-24T05:58:57;22.60;91.80
21169;DHT22;10742;51.816;8.662;2023-06-24T06:01:59;22.90;91.60
21169;DHT22;10742;51.816;8.662;2023-06-24T06:05:03;23.10;91.60
21169;DHT22;10742;51.816;8.662;2023-06-24T06:08:06;23.30;91.50
21169;DHT22;10742;51.816;8.662;2023-06-24T06:11:08;23.60;91.10
21169;DHT22;10742;51.816;8.662;2023-06-24T06:14:10;23.80;90.90
21169;DHT22;10742;51.816;8.662;2023-06-24T06:17:14;24.00;90.80
21169;DHT22;10742;51.816;8.662;2023-06-24T06:20:16;24.20;90.50
21169;DHT22;10742;51.816;8.662;2023-06-24T06:23:19;24.40;90.20
21169;DHT22;10742;51.816;8.662;2023-06-24T06:26:21;24.70;90.00
21169;DHT22;10742;51.816;8.662;2023-06-24T06:29:24;24.90;89.00
21169;DHT22;10742;51.816;8.662;2023-06-24T06:32:26;25.00;88.90
21169;DHT22;10742;51.816;8.662;2023-06-24T06:35:28;25.30;88.60
21169;DHT22;10742;51.816;8.662;2023-06-24T06:38:32;25.50;87.60
21169;DHT22;10742;51.816;8.662;2023-06-24T06:41:35;25.70;87.20
21169;DHT22;10742;51.816;8.662;2023-06-24T06:44:37;25.90;86.80
21169;DHT22;10742;51.816;8.662;2023-06-24T06:47:40;26.10;86.90
21169;DHT22;10742;51.816;8.662;2023-06-24T06:50:42;26.30;86.20
21169;DHT22;10742;51.816;8.662;2023-06-24T06:53:44;26.50;85.60
21169;DHT22;10742;51.816;8.662;2023-06-24T06:56:47;26.70;85.40
21169;DHT22;10742;51.816;8.662;2023-06-24T06:59:49;26.90;85.30
21169;DHT22;10742;51.816;8.662;2023-06-24T07:02:54;27.10;84.80
21169;DHT22;10742;51.816;8.662;2023-06-24T07:05:56;27.30;84.10
21169;DHT22;10742;51.816;8.662;2023-06-24T07:08:59;27.50;83.60
21169;DHT22;10742;51.816;8.662;2023-06-24T07:12:01;27.70;83.10
21169;DHT22;10742;51.816;8.662;2023-06-24T07:15:04;27.90;82.30
21169;DHT22;10742;51.816;8.662;2023-06-24T07:18:07;28.20;81.40
21169;DHT22;10742;51.816;8.662;2023-06-24T07:21:09;28.30;80.80
21169;DHT22;10742;51.816;8.662;2023-06-24T07:24:11;28.60;80.20
21169;DHT22;10742;51.816;8.662;2023-06-24T07:27:14;28.60;79.50
21169;DHT22;10742;51.816;8.662;2023-06-24T07:30:16;28.80;79.30
21169;DHT22;10742;51.816;8.662;2023-06-24T07:33:19;29.00;77.80
21169;DHT22;10742;51.816;8.662;2023-06-24T07:36:21;29.10;77.50
21169;DHT22;10742;51.816;8.662;2023-06-24T07:39:23;29.20;77.50
21169;DHT22;10742;51.816;8.662;2023-06-24T07:42:26;29.40;77.10
21169;DHT22;10742;51.816;8.662;2023-06-24T07:45:28;29.60;76.60
21169;DHT22;10742;51.816;8.662;2023-06-24T07:48:30;29.80;76.40
21169;DHT22;10742;51.816;8.662;2023-06-24T07:51:33;29.90;75.70
21169;DHT22;10742;51.816;8.662;2023-06-24T07:54:37;30.10;75.20
21169;DHT22;10742;51.816;8.662;2023-06-24T07:57:39;30.20;74.50
21169;DHT22;10742;51.816;8.662;2023-06-24T08:00:41;30.40;73.50
21169;DHT22;10742;51.816;8.662;2023-06-24T08:03:44;30.50;72.80
21169;DHT22;10742;51.816;8.662;2023-06-24T08:06:47;30.70;72.40
21169;DHT22;10742;51.816;8.662;2023-06-24T08:09:49;30.80;71.90
21169;DHT22;10742;51.816;8.662;2023-06-24T08:12:51;31.00;70.90
21169;DHT22;10742;51.816;8.662;2023-06-24T08:15:53;31.10;70.70
21169;DHT22;10742;51.816;8.662;2023-06-24T08:18:56;31.20;70.00
21169;DHT22;10742;51.816;8.662;2023-06-24T08:21:58;31.40;69.50
21169;DHT22;10742;51.816;8.662;2023-06-24T08:25:00;31.50;68.90
21169;DHT22;10742;51.816;8.662;2023-06-24T08:28:03;31.70;67.20
21169;DHT22;10742;51.816;8.662;2023-06-24T08:31:05;31.80;66.90
21169;DHT22;10742;51.816;8.662;2023-06-24T08:34:07;32.00;65.90
21169;DHT22;10742;51.816;8.662;2023-06-24T08:37:10;32.10;65.60
21169;DHT22;10742;51.816;8.662;2023-06-24T08:40:12;32.30;65.10
21169;DHT22;10742;51.816;8.662;2023-06-24T08:43:15;32.50;64.30
21169;DHT22;10742;51.816;8.662;2023-06-24T08:46:17;32.60;64.00
21169;DHT22;10742;51.816;8.662;2023-06-24T08:49:26;32.80;63.30
21169;DHT22;10742;51.816;8.662;2023-06-24T08:52:32;32.90;61.20
21169;DHT22;10742;51.816;8.662;2023-06-24T08:55:44;33.00;61.70
21169;DHT22;10742;51.816;8.662;2023-06-24T08:58:47;33.10;59.80
21169;DHT22;10742;51.816;8.662;2023-06-24T09:01:50;33.20;59.90
21169;DHT22;10742;51.816;8.662;2023-06-24T09:04:52;33.30;59.10
21169;DHT22;10742;51.816;8.662;2023-06-24T09:07:55;33.40;58.80
21169;DHT22;10742;51.816;8.662;2023-06-24T09:10:57;33.40;57.80
21169;DHT22;10742;51.816;8.662;2023-06-24T09:14:00;33.60;57.40
21169;DHT22;10742;51.816;8.662;2023-06-24T09:17:03;33.60;57.10
21169;DHT22;10742;51.816;8.662;2023-06-24T09:20:08;33.70;56.80
21169;DHT22;10742;51.816;8.662;2023-06-24T09:23:11;33.80;56.10
21169;DHT22;10742;51.816;8.662;2023-06-24T09:26:13;33.90;55.80
21169;DHT22;10742;51.816;8.662;2023-06-24T09:29:15;33.90;55.30
21169;DHT22;10742;51.816;8.662;2023-06-24T09:32:18;33.90;55.40
21169;DHT22;10742;51.816;8.662;2023-06-24T09:35:25;34.00;54.50
21169;DHT22;10742;51.816;8.662;2023-06-24T09:38:37;34.10;52.60
21169;DHT22;10742;51.816;8.662;2023-06-24T09:41:41;34.10;52.10
21169;DHT22;10742;51.816;8.662;2023-06-24T09:44:55;34.10;53.30
21169;DHT22;10742;51.816;8.662;2023-06-24T09:47:58;34.10;52.40
21169;DHT22;10742;51.816;8.662;2023-06-24T09:51:02;34.20;53.50
21169;DHT22;10742;51.816;8.662;2023-06-24T09:54:10;34.30;53.20
21169;DHT22;10742;51.816;8.662;2023-06-24T09:57:13;34.30;52.20
21169;DHT22;10742;51.816;8.662;2023-06-24T10:00:19;34.40;52.30
21169;DHT22;10742;51.816;8.662;2023-06-24T10:03:21;34.40;52.40
21169;DHT22;10742;51.816;8.662;2023-06-24T10:06:25;34.40;52.60
21169;DHT22;10742;51.816;8.662;2023-06-24T10:09:28;34.50;52.20
21169;DHT22;10742;51.816;8.662;2023-06-24T10:12:31;34.60;52.00
21169;DHT22;10742;51.816;8.662;2023-06-24T10:15:35;34.60;51.30
21169;DHT22;10742;51.816;8.662;2023-06-24T10:18:38;34.60;51.20
21169;DHT22;10742;51.816;8.662;2023-06-24T10:21:57;34.60;51.40
21169;DHT22;10742;51.816;8.662;2023-06-24T10:25:00;34.60;51.10
21169;DHT22;10742;51.816;8.662;2023-06-24T10:28:03;34.60;51.90
21169;DHT22;10742;51.816;8.662;2023-06-24T10:31:06;34.70;51.70
21169;DHT22;10742;51.816;8.662;2023-06-24T10:34:33;34.80;51.70
21169;DHT22;10742;51.816;8.662;2023-06-24T10:37:36;34.80;51.00
21169;DHT22;10742;51.816;8.662;2023-06-24T10:40:40;35.00;51.30
21169;DHT22;10742;51.816;8.662;2023-06-24T10:43:43;35.00;51.00
21169;DHT22;10742;51.816;8.662;2023-06-24T10:46:54;35.10;50.90
21169;DHT22;10742;51.816;8.662;2023-06-24T10:49:56;35.20;50.20
21169;DHT22;10742;51.816;8.662;2023-06-24T10:52:59;35.30;51.00
21169;DHT22;10742;51.816;8.662;2023-06-24T10:56:03;35.40;50.70
21169;DHT22;10742;51.816;8.662;2023-06-24T10:59:06;35.40;51.10
21169;DHT22;10742;51.816;8.662;2023-06-24T11:02:09;35.60;50.00
21169;DHT22;10742;51.816;8.662;2023-06-24T11:05:12;35.70;49.90
21169;DHT22;10742;51.816;8.662;2023-06-24T11:08:14;35.80;49.80
21169;DHT22;10742;51.816;8.662;2023-06-24T11:11:20;35.80;49.60
21169;DHT22;10742;51.816;8.662;2023-06-24T11:14:23;35.90;48.90
21169;DHT22;10742;51.816;8.662;2023-06-24T11:17:26;36.00;49.10
21169;DHT22;10742;51.816;8.662;2023-06-24T11:20:29;36.00;48.70
21169;DHT22;10742;51.816;8.662;2023-06-24T11:23:31;36.10;48.40
21169;DHT22;10742;51.816;8.662;2023-06-24T11:26:35;36.10;48.20
21169;DHT22;10742;51.816;8.662;2023-06-24T11:29:38;36.10;47.90
21169;DHT22;10742;51.816;8.662;2023-06-24T11:32:41;36.00;47.80
21169;DHT22;10742;51.816;8.662;2023-06-24T11:35:44;36.00;47.40
21169;DHT22;10742;51.816;8.662;2023-06-24T11:38:47;35.90;47.60
21169;DHT22;10742;51.816;8.662;2023-06-24T11:41:49;35.90;47.80
21169;DHT22;10742;51.816;8.662;2023-06-24T11:44:52;35.90;47.90
21169;DHT22;10742;51.816;8.662;2023-06-24T11:48:02;35.80;47.90
21169;DHT22;10742;51.816;8.662;2023-06-24T11:51:13;35.80;47.40
21169;DHT22;10742;51.816;8.662;2023-06-24T11:54:17;35.70;47.40
21169;DHT22;10742;51.816;8.662;2023-06-24T11:57:20;35.60;47.70
21169;DHT22;10742;51.816;8.662;2023-06-24T12:00:35;35.60;47.30
21169;DHT22;10742;51.816;8.662;2023-06-24T12:03:38;35.60;46.80
21169;DHT22;10742;51.816;8.662;2023-06-24T12:06:41;35.50;46.90
21169;DHT22;10742;51.816;8.662;2023-06-24T12:09:43;35.50;47.00
21169;DHT22;10742;51.816;8.662;2023-06-24T12:12:46;35.50;46.70
21169;DHT22;10742;51.816;8.662;2023-06-24T12:15:48;35.40;46.80
21169;DHT22;10742;51.816;8.662;2023-06-24T12:18:51;35.50;46.80
21169;DHT22;10742;51.816;8.662;2023-06-24T12:21:53;35.40;46.90
21169;DHT22;10742;51.816;8.662;2023-06-24T12:24:55;35.40;46.60
21169;DHT22;10742;51.816;8.662;2023-06-24T12:27:58;35.40;46.40
21169;DHT22;10742;51.816;8.662;2023-06-24T12:31:03;35.40;46.70
21169;DHT22;10742;51.816;8.662;2023-06-24T12:34:05;35.50;46.50
21169;DHT22;10742;51.816;8.662;2023-06-24T12:37:08;35.50;46.80
21169;DHT22;10742;51.816;8.662;2023-06-24T12:40:10;35.60;47.00
21169;DHT22;10742;51.816;8.662;2023-06-24T12:43:12;35.60;46.80
21169;DHT22;10742;51.816;8.662;2023-06-24T12:46:15;35.60;46.90
21169;DHT22;10742;51.816;8.662;2023-06-24T12:49:17;35.60;46.90
21169;DHT22;10742;51.816;8.662;2023-06-24T12:52:20;35.60;46.70
21169;DHT22;10742;51.816;8.662;2023-06-24T12:55:22;35.60;46.50
21169;DHT22;10742;51.816;8.662;2023-06-24T12:58:24;35.50;46.40
21169;DHT22;10742;51.816;8.662;2023-06-24T13:01:28;35.50;46.00
21169;DHT22;10742;51.816;8.662;2023-06-24T13:04:30;35.50;46.40
21169;DHT22;10742;51.816;8.662;2023-06-24T13:07:33;35.40;46.30
21169;DHT22;10742;51.816;8.662;2023-06-24T13:10:35;35.30;46.20
21169;DHT22;10742;51.816;8.662;2023-06-24T13:13:37;35.30;46.10
21169;DHT22;10742;51.816;8.662;2023-06-24T13:16:40;35.30;46.40
21169;DHT22;10742;51.816;8.662;2023-06-24T13:19:42;35.20;46.50
21169;DHT22;10742;51.816;8.662;2023-06-24T13:22:44;35.20;46.80
21169;DHT22;10742;51.816;8.662;2023-06-24T13:25:47;35.30;46.80
21169;DHT22;10742;51.816;8.662;2023-06-24T13:28:49;35.30;46.40
21169;DHT22;10742;51.816;8.662;2023-06-24T13:31:52;35.30;46.50
21169;DHT22;10742;51.816;8.662;2023-06-24T13:34:54;35.30;46.20
21169;DHT22;10742;51.816;8.662;2023-06-24T13:37:56;35.30;46.00
21169;DHT22;10742;51.816;8.662;2023-06-24T13:41:00;35.20;46.10
21169;DHT22;10742;51.816;8.662;2023-06-24T13:44:03;35.20;46.20
21169;DHT22;10742;51.816;8.662;2023-06-24T13:47:06;35.10;46.20
21169;DHT22;10742;51.816;8.662;2023-06-24T13:50:09;35.00;46.00
21169;DHT22;10742;51.816;8.662;2023-06-24T13:53:11;34.90;46.20
21169;DHT22;10742;51.816;8.662;2023-06-24T13:56:13;34.80;46.60
21169;DHT22;10742;51.816;8.662;2023-06-24T13:59:16;34.60;46.20
21169;DHT22;10742;51.816;8.662;2023-06-24T14:02:18;34.60;46.10
21169;DHT22;10742;51.816;8.662;2023-06-24T14:05:21;34.40;46.10
21169;DHT22;10742;51.816;8.662;2023-06-24T14:08:23;34.30;46.20
21169;DHT22;10742;51.816;8.662;2023-06-24T14:11:26;34.10;47.20
21169;DHT22;10742;51.816;8.662;2023-06-24T14:14:28;34.00;47.10
21169;DHT22;10742;51.816;8.662;2023-06-24T14:17:30;33.90;47.10
21169;DHT22;10742;51.816;8.662;2023-06-24T14:20:33;33.80;47.30
21169;DHT22;10742;51.816;8.662;2023-06-24T14:23:35;33.80;47.70
21169;DHT22;10742;51.816;8.662;2023-06-24T14:26:37;33.70;48.10
21169;DHT22;10742;51.816;8.662;2023-06-24T14:29:40;33.80;48.00
21169;DHT22;10742;51.816;8.662;2023-06-24T14:32:42;33.80;47.90
21169;DHT22;10742;51.816;8.662;2023-06-24T14:35:44;33.80;47.80
21169;DHT22;10742;51.816;8.662;2023-06-24T14:38:47;33.80;47.70
21169;DHT22;10742;51.816;8.662;2023-06-24T14:41:49;33.80;47.90
21169;DHT22;10742;51.816;8.662;2023-06-24T14:44:52;33.80;48.10
21169;DHT22;10742;51.816;8.662;2023-06-24T14:47:54;33.90;48.40
21169;DHT22;10742;51.816;8.662;2023-06-24T14:50:56;33.80;48.10
21169;DHT22;10742;51.816;8.662;2023-06-24T14:53:59;33.90;48.10
21169;DHT22;10742;51.816;8.662;2023-06-24T14:57:01;33.90;48.20
21169;DHT22;10742;51.816;8.662;2023-06-24T15:00:05;34.00;48.20
21169;DHT22;10742;51.816;8.662;2023-06-24T15:03:07;34.00;48.10
21169;DHT22;10742;51.816;8.662;2023-06-24T15:06:09;34.00;48.20
21169;DHT22;10742;51.816;8.662;2023-06-24T15:09:12;34.00;48.40
21169;DHT22;10742;51.816;8.662;2023-06-24T15:12:14;34.10;48.10
21169;DHT22;10742;51.816;8.662;2023-06-24T15:15:17;34.10;47.50
21169;DHT22;10742;51.816;8.662;2023-06-24T15:18:19;34.00;47.20
21169;DHT22;10742;51.816;8.662;2023-06-24T15:21:21;34.10;47.30
21169;DHT22;10742;51.816;8.662;2023-06-24T15:24:37;33.90;47.10
21169;DHT22;10742;51.816;8.662;2023-06-24T15:27:39;33.90;47.50
21169;DHT22;10742;51.816;8.662;2023-06-24T15:30:42;33.80;47.60
21169;DHT22;10742;51.816;8.662;2023-06-24T15:33:44;33.80;47.70
21169;DHT22;10742;51.816;8.662;2023-06-24T15:36:46;33.80;47.70
21169;DHT22;10742;51.816;8.662;2023-06-24T15:39:49;33.80;47.60
21169;DHT22;10742;51.816;8.662;2023-06-24T15:42:51;33.70;47.60
21169;DHT22;10742;51.816;8.662;2023-06-24T15:45:53;33.60;48.00
21169;DHT22;10742;51.816;8.662;2023-06-24T15:48:56;33.60;48.30
21169;DHT22;10742;51.816;8.662;2023-06-24T15:51:58;33.50;48.20
21169;DHT22;10742;51.816;8.662;2023-06-24T15:55:00;33.50;47.90
21169;DHT22;10742;51.816;8.662;2023-06-24T15:58:03;33.50;48.10
21169;DHT22;10742;51.816;8.662;2023-06-24T16:01:06;33.60;48.10
21169;DHT22;10742;51.816;8.662;2023-06-24T16:04:08;33.50;48.00
21169;DHT22;10742;51.816;8.662;2023-06-24T16:07:11;33.50;48.10
21169;DHT22;10742;51.816;8.662;2023-06-24T16:10:32;33.50;48.30
21169;DHT22;10742;51.816;8.662;2023-06-24T16:13:53;33.60;47.90
21169;DHT22;10742;51.816;8.662;2023-06-24T16:16:56;33.60;48.10
21169;DHT22;10742;51.816;8.662;2023-06-24T16:19:58;33.50;47.50
21169;DHT22;10742;51.816;8.662;2023-06-24T16:23:01;33.50;47.50
21169;DHT22;10742;51.816;8.662;2023-06-24T16:26:05;33.40;47.50
21169;DHT22;10742;51.816;8.662;2023-06-24T16:29:07;33.40;47.80
21169;DHT22;10742;51.816;8.662;2023-06-24T16:32:10;33.40;47.60
21169;DHT22;10742;51.816;8.662;2023-06-24T16:35:12;33.40;47.80
21169;DHT22;10742;51.816;8.662;2023-06-24T16:38:15;33.40;47.70
21169;DHT22;10742;51.816;8.662;2023-06-24T16:41:17;33.30;47.90
21169;DHT22;10742;51.816;8.662;2023-06-24T16:44:20;33.30;48.10
21169;DHT22;10742;51.816;8.662;2023-06-24T16:47:22;33.20;48.40
21169;DHT22;10742;51.816;8.662;2023-06-24T16:50:27;33.10;48.50
21169;DHT22;10742;51.816;8.662;2023-06-24T16:53:29;33.00;48.40
21169;DHT22;10742;51.816;8.662;2023-06-24T16:56:32;32.90;48.50
21169;DHT22;10742;51.816;8.662;2023-06-24T16:59:34;32.80;48.50
21169;DHT22;10742;51.816;8.662;2023-06-24T17:02:36;32.70;48.70
21169;DHT22;10742;51.816;8.662;2023-06-24T17:05:39;32.60;49.00
21169;DHT22;10742;51.816;8.662;2023-06-24T17:08:41;32.40;49.10
21169;DHT22;10742;51.816;8.662;2023-06-24T17:11:44;32.30;49.40
21169;DHT22;10742;51.816;8.662;2023-06-24T17:14:46;32.20;49.60
21169;DHT22;10742;51.816;8.662;2023-06-24T17:17:49;32.10;49.50
21169;DHT22;10742;51.816;8.662;2023-06-24T17:20:51;32.10;49.70
21169;DHT22;10742;51.816;8.662;2023-06-24T17:23:53;32.00;49.80
21169;DHT22;10742;51.816;8.662;2023-06-24T17:26:56;32.00;49.90
21169;DHT22;10742;51.816;8.662;2023-06-24T17:29:59;31.90;49.80
21169;DHT22;10742;51.816;8.662;2023-06-24T17:33:01;31.90;50.00
21169;DHT22;10742;51.816;8.662;2023-06-24T17:36:04;31.90;49.90
21169;DHT22;10742;51.816;8.662;2023-06-24T17:39:06;31.80;50.10
21169;DHT22;10742;51.816;8.662;2023-06-24T17:42:08;31.80;50.10
21169;DHT22;10742;51.816;8.662;2023-06-24T17:45:11;31.80;50.30
21169;DHT22;10742;51.816;8.662;2023-06-24T17:48:13;31.70;50.30
21169;DHT22;10742;51.816;8.662;2023-06-24T17:51:15;31.70;50.20
21169;DHT22;10742;51.816;8.662;2023-06-24T17:54:18;31.70;50.10
21169;DHT22;10742;51.816;8.662;2023-06-24T17:57:20;31.70;50.00
21169;DHT22;10742;51.816;8.662;2023-06-24T18:00:22;31.70;50.10
21169;DHT22;10742;51.816;8.662;2023-06-24T18:03:25;31.70;50.20
21169;DHT22;10742;51.816;8.662;2023-06-24T18:06:27;31.70;50.20
21169;DHT22;10742;51.816;8.662;2023-06-24T18:09:29;31.60;50.10
21169;DHT22;10742;51.816;8.662;2023-06-24T18:12:31;31.60;50.20
21169;DHT22;10742;51.816;8.662;2023-06-24T18:15:34;31.50;50.10
21169;DHT22;10742;51.816;8.662;2023-06-24T18:18:36;31.50;50.20
21169;DHT22;10742;51.816;8.662;2023-06-24T18:21:38;31.50;50.40
21169;DHT22;10742;51.816;8.662;2023-06-24T18:24:40;31.40;50.60
21169;DHT22;10742;51.816;8.662;2023-06-24T18:27:43;31.30;50.70
21169;DHT22;10742;51.816;8.662;2023-06-24T18:30:45;31.30;51.30
21169;DHT22;10742;51.816;8.662;2023-06-24T18:33:47;31.20;50.70
21169;DHT22;10742;51.816;8.662;2023-06-24T18:36:50;31.20;50.60
21169;DHT22;10742;51.816;8.662;2023-06-24T18:39:52;31.20;50.80
21169;DHT22;10742;51.816;8.662;2023-06-24T18:42:54;31.20;50.70
21169;DHT22;10742;51.816;8.662;2023-06-24T18:45:57;31.20;50.80
21169;DHT22;10742;51.816;8.662;2023-06-24T18:48:59;31.10;50.80
21169;DHT22;10742;51.816;8.662;2023-06-24T18:52:02;31.00;50.80
21169;DHT22;10742;51.816;8.662;2023-06-24T18:55:05;31.00;51.00
21169;DHT22;10742;51.816;8.662;2023-06-24T18:58:07;31.00;51.40
21169;DHT22;10742;51.816;8.662;2023-06-24T19:01:10;30.90;51.70
21169;DHT22;10742;51.816;8.662;2023-06-24T19:04:12;30.90;52.00
21169;DHT22;10742;51.816;8.662;2023-06-24T19:07:15;30.80;52.20
21169;DHT22;10742;51.816;8.662;2023-06-24T19:10:17;30.80;52.50
21169;DHT22;10742;51.816;8.662;2023-06-24T19:13:19;30.80;52.80
21169;DHT22;10742;51.816;8.662;2023-06-24T19:16:22;30.70;53.00
21169;DHT22;10742;51.816;8.662;2023-06-24T19:19:25;30.70;53.00
21169;DHT22;10742;51.816;8.662;2023-06-24T19:22:27;30.70;53.20
21169;DHT22;10742;51.816;8.662;2023-06-24T19:25:29;30.60;53.10